Data for 08/28/2007

Time Sea-Level Adjusted Pressure Absolute Pressure Temperature Relative Humidity Dew Point   
(mb) (inHg) (mb) (inHg) (C) (F) (%) (C) (F)
00:05 1019 30.09 848 25.04 16.8 62.3 51 6.8 44.2
00:10 1019 30.09 848 25.04 16.7 62 51 6.7 44
00:15 1019 30.09 848 25.04 16.6 61.8 52 6.8 44.2
00:20 1019 30.09 848 25.04 16.5 61.6 52 6.6 43.9
00:25 1019 30.09 848 25.04 16.4 61.4 52 6.6 43.9
00:30 1019 30.09 848 25.04 16.3 61.3 52 6.6 44
00:35 1019 30.09 848 25.04 16.2 61.1 53 6.6 44
00:40 1019 30.09 849 25.07 16.1 61 53 6.7 44.1
00:45 1019 30.09 849 25.07 15.9 60.7 54 6.7 44
00:50 1020 30.12 849 25.07 15.8 60.5 55 6.8 44.3
00:55 1020 30.12 849 25.07 15.6 60.1 55 6.8 44.2
01:00 1020 30.12 849 25.07 15.5 60 55 6.6 44
01:05 1020 30.12 849 25.07 15.4 59.8 55 6.5 43.6
01:10 1020 30.12 849 25.07 15.5 59.9 55 6.5 43.7
01:15 1020 30.12 849 25.07 15.3 59.6 55 6.5 43.7
01:20 1020 30.12 849 25.07 15.2 59.4 55 6.5 43.6
01:25 1020 30.12 849 25.07 15.1 59.2 56 6.5 43.6
01:30 1020 30.12 849 25.07 15 59 56 6.3 43.3
01:35 1020 30.12 849 25.07 14.9 58.9 56 6.3 43.3
01:40 1020 30.12 849 25.07 14.9 58.7 56 6.3 43.3
01:45 1020 30.12 849 25.07 14.7 58.5 57 6.3 43.4
01:50 1020 30.12 849 25.07 14.6 58.2 57 6.3 43.3
01:55 1020 30.12 849 25.07 14.5 58.2 57 6.2 43.2
02:00 1020 30.12 849 25.07 14.5 58 58 6.3 43.3
02:05 1020 30.12 849 25.07 14.4 57.9 58 6.2 43.2
02:10 1020 30.12 849 25.07 14.4 57.9 58 6.3 43.3
02:15 1020 30.12 849 25.07 14.4 57.8 59 6.4 43.5
02:20 1020 30.12 849 25.07 14.3 57.7 59 6.4 43.6
02:25 1020 30.12 849 25.07 14.2 57.6 60 6.5 43.7
02:30 1020 30.12 849 25.07 14.1 57.4 60 6.5 43.6
02:35 1020 30.12 849 25.07 14.1 57.3 59 6.3 43.3
02:40 1020 30.12 849 25.07 14 57.2 60 6.4 43.6
02:45 1020 30.12 849 25.07 14 57.1 60 6.3 43.4
02:50 1020 30.12 850 25.1 13.9 57 60 6.4 43.5
02:55 1020 30.12 850 25.1 13.8 56.9 60 6.3 43.3
03:00 1020 30.12 850 25.1 13.9 57 60 6.2 43.2
03:05 1020 30.12 850 25.1 13.9 57.1 60 6.3 43.3
03:10 1020 30.12 850 25.1 13.8 56.8 60 6.2 43.2
03:15 1021 30.15 850 25.1 13.9 57 60 6.2 43.2
03:20 1021 30.15 850 25.1 13.9 57 58 5.9 42.7
03:25 1020 30.12 850 25.1 13.9 57 58 5.9 42.5
03:30 1021 30.15 850 25.1 13.9 56.9 59 6 42.8
03:35 1021 30.15 850 25.1 13.8 56.8 58 5.9 42.5
03:40 1021 30.15 850 25.1 13.8 56.9 58 5.8 42.4
03:45 1021 30.15 850 25.1 13.9 57.1 57 5.6 42.1
03:50 1021 30.15 850 25.1 13.8 56.9 58 5.7 42.3
03:55 1021 30.15 850 25.1 13.8 56.8 58 5.6 42.1
04:00 1021 30.15 850 25.1 13.7 56.7 57 5.5 41.9
04:05 1021 30.15 850 25.1 13.4 56 63 6.6 43.8
04:10 1021 30.15 850 25.1 12.2 54 67 6.3 43.3
04:15 1021 30.15 850 25.1 11.7 53.1 69 6.2 43.1
04:20 1021 30.15 850 25.1 11.7 53.1 67 5.8 42.4
04:25 1021 30.15 850 25.1 11.7 53.1 66 5.7 42.3
04:30 1021 30.15 850 25.1 12 53.6 65 5.7 42.2
04:35 1021 30.15 850 25.1 11.9 53.4 66 5.9 42.5
04:40 1021 30.15 850 25.1 11.7 53 66 5.7 42.3
04:45 1021 30.15 850 25.1 11.7 53.1 66 5.7 42.3
04:50 1021 30.15 850 25.1 11.6 52.9 65 5.2 41.4
04:55 1021 30.15 850 25.1 11.9 53.4 64 5.4 41.8
05:00 1021 30.15 850 25.1 11.7 53.1 66 5.6 42.1
05:05 1021 30.15 850 25.1 11.6 52.9 62 4.6 40.3
05:10 1021 30.15 850 25.1 12.1 53.8 61 4.9 40.9
05:15 1021 30.15 850 25.1 12 53.5 62 5.1 41.1
05:20 1021 30.15 850 25.1 11.9 53.4 60 4.5 40.1
05:25 1021 30.15 850 25.1 11.8 53.2 63 5.1 41.1
05:30 1021 30.15 850 25.1 11.1 51.9 64 4.5 40.1
05:35 1021 30.15 850 25.1 10.9 51.6 66 4.7 40.5
05:40 1021 30.15 851 25.13 10.1 50.3 69 4.6 40.4
05:45 1021 30.15 851 25.13 9.9 49.8 70 4.7 40.4
05:50 1021 30.15 851 25.13 9.9 49.8 69 4.5 40.2
05:55 1021 30.15 851 25.13 9.9 49.8 68 4.2 39.5
06:00 1022 30.18 851 25.13 10 50 68 4.4 39.9
06:05 1022 30.18 851 25.13 9.9 49.8 69 4.6 40.3
06:10 1022 30.18 851 25.13 9.7 49.4 69 4.4 39.9
06:15 1022 30.18 851 25.13 9.7 49.5 67 4 39.1
06:20 1022 30.18 851 25.13 10.5 50.9 65 4.3 39.7
06:25 1022 30.18 851 25.13 10.2 50.4 68 4.6 40.4
06:30 1022 30.18 851 25.13 9.6 49.3 70 4.3 39.8
06:35 1022 30.18 851 25.13 9.4 49 71 4.4 40
06:40 1022 30.18 851 25.13 9.6 49.3 68 4 39.2
06:45 1022 30.18 851 25.13 10.1 50.1 66 4 39.2
06:50 1022 30.18 851 25.13 10.2 50.3 66 4.2 39.5
06:55 1022 30.18 852 25.16 10 50 68 4.3 39.8
07:00 1022 30.18 852 25.16 9.6 49.3 70 4.4 39.9
07:05 1022 30.18 852 25.16 9.5 49.1 69 4.1 39.3
07:10 1022 30.18 852 25.16 9.6 49.4 68 4.2 39.5
07:15 1023 30.21 852 25.16 9.8 49.6 67 4 39.3
07:20 1023 30.21 852 25.16 10 49.9 68 4.3 39.8
07:25 1023 30.21 852 25.16 10.1 50.1 68 4.4 39.9
07:30 1023 30.21 852 25.16 10.1 50.1 68 4.5 40.2
07:35 1023 30.21 852 25.16 10.1 50.2 68 4.5 40.1
07:40 1023 30.21 852 25.16 10.1 50.1 68 4.4 39.9
07:45 1023 30.21 852 25.16 10.1 50.2 68 4.5 40.1
07:50 1023 30.21 852 25.16 10.2 50.4 67 4.5 40.1
07:55 1023 30.21 852 25.16 10.4 50.8 66 4.4 40
08:00 1023 30.21 852 25.16 10.5 50.9 66 4.4 40
08:05 1023 30.21 852 25.16 10.7 51.2 65 4.5 40
08:10 1023 30.21 852 25.16 10.7 51.3 66 4.6 40.4
08:15 1023 30.21 852 25.16 11.1 52 64 4.5 40.1
08:20 1023 30.21 852 25.16 11.6 52.9 62 4.6 40.4
08:25 1023 30.21 852 25.16 11.8 53.2 61 4.6 40.2
08:30 1023 30.21 852 25.16 11.6 52.8 62 4.5 40.2
08:35 1023 30.21 852 25.16 11.3 52.4 63 4.5 40.1
08:40 1023 30.21 852 25.16 11.1 52 63 4.5 40
08:45 1023 30.21 852 25.16 11.2 52.1 64 4.6 40.3
08:50 1023 30.21 852 25.16 11 51.9 63 4.4 39.9
08:55 1023 30.21 852 25.16 11 51.9 63 4.3 39.7
09:00 1023 30.21 852 25.16 11 51.8 64 4.4 39.9
09:05 1023 30.21 853 25.19 11.4 52.5 62 4.3 39.8
09:10 1023 30.21 853 25.19 11.8 53.2 61 4.5 40.1
09:15 1023 30.21 852 25.16 12.5 54.6 57 4.3 39.7
09:20 1023 30.21 852 25.16 12.6 54.6 58 4.7 40.5
09:25 1023 30.21 852 25.16 12.6 54.7 59 4.8 40.6
09:30 1023 30.21 852 25.16 13 55.4 57 4.7 40.4
09:35 1023 30.21 852 25.16 13.3 55.9 58 5.2 41.4
09:40 1023 30.21 853 25.19 13.3 55.9 56 4.8 40.6
09:45 1023 30.21 853 25.19 13.5 56.2 58 5.4 41.7
09:50 1023 30.21 853 25.19 13.3 56 58 5.3 41.6
09:55 1023 30.21 853 25.19 13.4 56 58 5.3 41.5
10:00 1024 30.24 853 25.19 14.1 57.4 54 5.1 41.3
10:05 1024 30.24 853 25.19 13.9 57.1 56 5.5 41.9
10:10 1024 30.24 853 25.19 13.7 56.7 56 5.3 41.5
10:15 1024 30.24 853 25.19 13.6 56.4 57 5.3 41.5
10:20 1024 30.24 853 25.19 13.6 56.4 57 5.3 41.5
10:25 1024 30.24 853 25.19 13.6 56.5 57 5.4 41.8
10:30 1024 30.24 853 25.19 14.2 57.5 55 5.4 41.8
10:35 1024 30.24 853 25.19 15 59 52 5.3 41.6
10:40 1024 30.24 853 25.19 14.6 58.3 54 5.5 41.9
10:45 1024 30.24 853 25.19 15.4 59.8 51 5.3 41.6
10:50 1024 30.24 853 25.19 16.2 61.2 49 5.6 42
10:55 1024 30.24 853 25.19 16.5 61.7 49 5.9 42.7
11:00 1024 30.24 853 25.19 15.2 59.3 53 5.8 42.4
11:05 1023 30.21 853 25.19 14.8 58.7 52 5.3 41.5
11:10 1023 30.21 853 25.19 15.9 60.7 49 5.2 41.4
11:15 1023 30.21 853 25.19 16.5 61.6 49 5.8 42.5
11:20 1023 30.21 853 25.19 15.5 59.9 51 5.6 42
11:25 1023 30.21 853 25.19 16.1 61 50 5.8 42.5
11:30 1023 30.21 853 25.19 16.3 61.3 49 5.7 42.3
11:35 1023 30.21 853 25.19 16.4 61.6 47 5.1 41.1
11:40 1023 30.21 852 25.16 17.1 62.8 46 5.6 42.1
11:45 1023 30.21 852 25.16 17.8 64 44 5.6 42
11:50 1023 30.21 852 25.16 17.9 64.1 45 6 42.9
11:55 1023 30.21 852 25.16 18 64.4 44 5.8 42.4
12:00 1023 30.21 852 25.16 18.1 64.6 44 5.9 42.6
12:05 1023 30.21 852 25.16 18.8 65.8 42 5.9 42.6
12:10 1023 30.21 852 25.16 19.1 66.5 41 5.9 42.6
12:15 1023 30.21 852 25.16 18.7 65.6 41 5.4 41.8
12:20 1023 30.21 852 25.16 19.3 66.7 41 5.8 42.4
12:25 1023 30.21 852 25.16 18.8 65.8 44 6.3 43.3
12:30 1023 30.21 852 25.16 18.9 66 41 5.5 41.9
12:35 1023 30.21 852 25.16 19.2 66.5 40 5.6 42
12:40 1023 30.21 852 25.16 19.2 66.5 42 6 42.8
12:45 1023 30.21 852 25.16 19.8 67.6 38 5.2 41.4
12:50 1023 30.21 852 25.16 20.7 69.2 37 5.6 42
12:55 1023 30.21 852 25.16 20.4 68.8 38 6 42.8
13:00 1023 30.21 852 25.16 20.1 68.2 38 5.7 42.3
13:05 1023 30.21 852 25.16 20.2 68.4 37 5.4 41.6
13:10 1023 30.21 852 25.16 20.9 69.6 37 5.9 42.5
13:15 1023 30.21 852 25.16 21.2 70.2 34 4.8 40.6
13:20 1023 30.21 852 25.16 20.4 68.8 36 5 41
13:25 1023 30.21 852 25.16 20.5 69 35 4.6 40.3
13:30 1023 30.21 852 25.16 20.6 69.1 35 4.9 40.7
13:35 1023 30.21 852 25.16 21.7 71.1 34 5.4 41.7
13:40 1023 30.21 852 25.16 21.4 70.4 34 5 41
13:45 1023 30.21 852 25.16 21.4 70.5 34 4.9 40.8
13:50 1023 30.21 852 25.16 21.3 70.3 36 5.9 42.6
13:55 1023 30.21 852 25.16 21.6 70.9 33 4.7 40.4
14:00 1022 30.18 852 25.16 22.3 72.1 33 5.2 41.4
14:05 1022 30.18 852 25.16 22 71.7 32 4.7 40.4
14:10 1022 30.18 852 25.16 22 71.5 33 5 40.9
14:15 1022 30.18 852 25.16 21.2 70.1 32 4.2 39.5
14:20 1022 30.18 852 25.16 21.2 70.2 32 4.1 39.4
14:25 1022 30.18 851 25.13 22.1 71.8 32 5 41.1
14:30 1022 30.18 851 25.13 21 69.8 34 4.7 40.5
14:35 1022 30.18 851 25.13 20.9 69.7 33 4 39.2
14:40 1022 30.18 851 25.13 22 71.6 31 4.2 39.6
14:45 1022 30.18 851 25.13 22.7 72.8 30 4.5 40.1
14:50 1022 30.18 851 25.13 22.9 73.3 30 4.7 40.5
14:55 1022 30.18 851 25.13 21.9 71.4 32 4.7 40.5
15:00 1022 30.18 851 25.13 22.3 72.2 30 4.1 39.4
15:05 1022 30.18 851 25.13 22.7 72.9 28 3.6 38.4
15:10 1022 30.18 851 25.13 22.4 72.2 31 4.5 40
15:15 1022 30.18 851 25.13 22.4 72.3 29 3.5 38.4
15:20 1022 30.18 851 25.13 23.1 73.5 28 3.8 38.8
15:25 1022 30.18 851 25.13 23.1 73.5 29 4.1 39.3
15:30 1022 30.18 851 25.13 23.2 73.7 28 3.6 38.6
15:35 1022 30.18 851 25.13 22.8 73.1 28 3.8 38.8
15:40 1022 30.18 851 25.13 23.3 74 29 4.4 39.9
15:45 1022 30.18 851 25.13 22.5 72.5 30 4.3 39.7
15:50 1022 30.18 851 25.13 22.4 72.4 29 3.7 38.7
15:55 1022 30.18 851 25.13 23.4 74.2 27 3.6 38.5
16:00 1022 30.18 851 25.13 24 75.2 27 3.8 38.9
16:05 1022 30.18 851 25.13 23.4 74.1 26 3.1 37.6
16:10 1022 30.18 851 25.13 23.4 74.1 26 3.2 37.7
16:15 1021 30.15 851 25.13 22.7 72.8 28 3.5 38.2
16:20 1021 30.15 851 25.13 22 71.6 28 3 37.3
16:25 1021 30.15 851 25.13 22.4 72.4 27 3 37.3
16:30 1021 30.15 851 25.13 23.4 74 26 3.1 37.6
16:35 1021 30.15 851 25.13 24 75.2 24 2.6 36.7
16:40 1021 30.15 851 25.13 23.4 74.2 25 2.6 36.8
16:45 1021 30.15 851 25.13 24 75.2 24 2.6 36.8
16:50 1021 30.15 851 25.13 24.4 75.9 24 2.6 36.6
16:55 1021 30.15 851 25.13 23.8 74.8 26 3.4 38.1
17:00 1021 30.15 851 25.13 23.2 73.7 25 2.4 36.4
17:05 1021 30.15 851 25.13 22.9 73.2 26 2.6 36.7
17:10 1021 30.15 851 25.13 23.5 74.2 25 2.4 36.3
17:15 1021 30.15 851 25.13 23.3 73.9 25 2.2 36
17:20 1021 30.15 850 25.1 22.6 72.7 26 2.5 36.4
17:25 1021 30.15 850 25.1 22.7 72.9 25 2 35.6
17:30 1021 30.15 850 25.1 23.1 73.6 26 2.8 37
17:35 1021 30.15 850 25.1 22.9 73.2 25 1.9 35.4
17:40 1021 30.15 850 25.1 22.7 72.9 29 4.1 39.3
17:45 1021 30.15 850 25.1 22.7 72.8 33 5.7 42.3
17:50 1021 30.15 850 25.1 22.2 71.9 35 6 42.8
17:55 1021 30.15 850 25.1 21.4 70.6 36 5.8 42.4
18:00 1021 30.15 850 25.1 21.3 70.3 37 6.3 43.3
18:05 1021 30.15 850 25.1 21.1 69.9 38 6.4 43.6
18:10 1021 30.15 850 25.1 20.9 69.6 38 6.2 43.2
18:15 1021 30.15 850 25.1 20.9 69.7 38 6.2 43.2
18:20 1021 30.15 850 25.1 20.9 69.6 39 6.6 44
18:25 1021 30.15 850 25.1 20.6 69 40 6.7 44
18:30 1021 30.15 850 25.1 20.4 68.6 41 6.8 44.3
18:35 1021 30.15 850 25.1 20.1 68.3 41 6.8 44.2
18:40 1021 30.15 850 25.1 19.9 67.8 42 6.9 44.4
18:45 1021 30.15 850 25.1 19.8 67.6 41 6.4 43.6
18:50 1021 30.15 850 25.1 19.6 67.3 42 6.5 43.7
18:55 1021 30.15 850 25.1 19.5 67 43 6.7 44
19:00 1021 30.15 850 25.1 19.3 66.7 43 6.6 43.9
19:05 1021 30.15 850 25.1 19.1 66.3 44 6.6 43.9
19:10 1021 30.15 851 25.13 18.9 66.1 44 6.5 43.6
19:15 1021 30.15 851 25.13 18.8 65.8 45 6.6 43.8
19:20 1021 30.15 851 25.13 18.6 65.5 45 6.6 43.8
19:25 1021 30.15 851 25.13 18.5 65.2 45 6.5 43.7
19:30 1021 30.15 851 25.13 18.3 65 46 6.5 43.7
19:35 1021 30.15 851 25.13 18.2 64.7 46 6.5 43.7
19:40 1021 30.15 851 25.13 18 64.3 47 6.6 43.9
19:45 1021 30.15 850 25.1 17.8 64.1 48 6.7 44
19:50 1021 30.15 851 25.13 17.6 63.8 48 6.6 43.9
19:55 1022 30.18 851 25.13 17.5 63.5 48 6.6 43.9
20:00 1022 30.18 851 25.13 17.4 63.2 49 6.6 43.8
20:05 1022 30.18 851 25.13 17.3 63.1 49 6.6 43.8
20:10 1022 30.18 851 25.13 17.1 62.8 50 6.7 44
20:15 1022 30.18 851 25.13 17 62.6 50 6.6 43.9
20:20 1022 30.18 851 25.13 16.9 62.4 51 6.6 44
20:25 1022 30.18 851 25.13 16.7 62.1 51 6.5 43.8
20:30 1022 30.18 851 25.13 16.7 62 51 6.6 43.9
20:35 1022 30.18 851 25.13 16.6 61.9 51 6.5 43.8
20:40 1022 30.18 851 25.13 16.5 61.7 52 6.6 43.9
20:45 1022 30.18 851 25.13 16.4 61.5 52 6.6 43.9
20:50 1022 30.18 851 25.13 16.3 61.3 53 6.7 44
20:55 1022 30.18 851 25.13 16.3 61.3 53 6.6 43.9
21:00 1022 30.18 851 25.13 16.2 61.2 53 6.7 44
21:05 1022 30.18 851 25.13 16.1 60.9 54 6.7 44.1
21:10 1022 30.18 851 25.13 15.9 60.6 54 6.7 44
21:15 1022 30.18 851 25.13 15.8 60.5 54 6.7 44
21:20 1022 30.18 851 25.13 15.8 60.4 55 6.8 44.2
21:25 1022 30.18 852 25.16 15.8 60.4 55 6.7 44.1
21:30 1022 30.18 851 25.13 15.7 60.2 55 6.8 44.2
21:35 1022 30.18 852 25.16 15.7 60.2 55 6.8 44.3
21:40 1022 30.18 852 25.16 15.6 60 56 6.9 44.3
21:45 1022 30.18 851 25.13 15.5 59.9 56 6.9 44.4
21:50 1022 30.18 852 25.16 15.5 59.8 56 6.9 44.4
21:55 1022 30.18 852 25.16 15.4 59.7 57 6.9 44.4
22:00 1022 30.18 852 25.16 15.4 59.7 56 6.9 44.4
22:05 1022 30.18 852 25.16 15.3 59.6 57 6.9 44.4
22:10 1023 30.21 852 25.16 15.3 59.6 57 6.9 44.4
22:15 1023 30.21 852 25.16 15.3 59.6 57 6.9 44.5
22:20 1023 30.21 852 25.16 15.3 59.5 57 6.9 44.4
22:25 1023 30.21 852 25.16 15.3 59.5 57 6.9 44.4
22:30 1023 30.21 852 25.16 15.2 59.4 57 6.9 44.5
22:35 1023 30.21 852 25.16 15.2 59.4 57 6.8 44.3
22:40 1023 30.21 852 25.16 15.1 59.2 58 6.9 44.4
22:45 1023 30.21 852 25.16 15 59.1 58 6.9 44.4
22:50 1023 30.21 852 25.16 15 58.9 58 6.9 44.3
22:55 1023 30.21 852 25.16 14.8 58.7 58 6.8 44.3
23:00 1023 30.21 852 25.16 14.8 58.7 58 6.8 44.3
23:05 1023 30.21 852 25.16 14.7 58.5 59 6.9 44.4
23:10 1023 30.21 852 25.16 14.7 58.4 59 6.8 44.3
23:15 1023 30.21 852 25.16 14.6 58.3 59 6.8 44.2
23:20 1023 30.21 852 25.16 14.7 58.4 59 6.7 44.1
23:25 1023 30.21 852 25.16 14.6 58.2 59 6.8 44.2
23:30 1023 30.21 852 25.16 14.5 58.1 59 6.7 44.1
23:35 1023 30.21 852 25.16 14.5 58 60 6.7 44.1
23:40 1023 30.21 852 25.16 14.5 58 60 6.8 44.2
23:45 1023 30.21 852 25.16 14.4 57.9 60 6.8 44.2
23:50 1023 30.21 852 25.16 14.3 57.7 60 6.7 44.1
23:55 1023 30.21 853 25.19 14.2 57.5 61 6.8 44.2
24:00 1023 30.21 853 25.19 14 57.1 62 6.8 44.2